createdAt,value
2018-09-21T00:01:06.538Z,1001.06
2018-09-21T00:02:06.494Z,1001.02
2018-09-21T00:04:20.801Z,1001.03
2018-09-21T00:04:59.774Z,1001.05
2018-09-21T00:06:53.113Z,1000.98
2018-09-21T00:07:53.060Z,1001.00
2018-09-21T00:09:46.385Z,1000.92
2018-09-21T00:10:46.349Z,1000.96
2018-09-21T00:12:39.676Z,1000.90
2018-09-21T00:13:39.626Z,1000.84
2018-09-21T00:15:32.937Z,1000.83
2018-09-21T00:16:32.910Z,1000.82
2018-09-21T00:18:26.231Z,1000.79
2018-09-21T00:19:26.191Z,1000.80
2018-09-21T00:21:19.506Z,1000.73
2018-09-21T00:22:19.479Z,1000.72
2018-09-21T00:24:12.802Z,1000.73
2018-09-21T00:25:12.761Z,1000.74
2018-09-21T00:27:06.077Z,1000.73
2018-09-21T00:28:06.031Z,1000.66
2018-09-21T00:29:59.347Z,1000.69
2018-09-21T00:30:59.320Z,1000.70
2018-09-21T00:32:52.635Z,1000.66
2018-09-21T00:33:52.600Z,1000.71
2018-09-21T00:35:45.907Z,1000.70
2018-09-21T00:36:45.875Z,1000.73
2018-09-21T00:38:39.205Z,1000.70
2018-09-21T00:39:39.157Z,1000.74
2018-09-21T00:41:32.481Z,1000.66
2018-09-21T00:42:32.445Z,1000.66
2018-09-21T00:44:25.762Z,1000.67
2018-09-21T00:45:25.731Z,1000.65
2018-09-21T00:47:19.052Z,1000.57
2018-09-21T00:48:19.004Z,1000.56
2018-09-21T00:50:12.323Z,1000.59
2018-09-21T00:51:12.286Z,1000.47
2018-09-21T00:53:05.618Z,1000.49
2018-09-21T00:54:05.571Z,1000.43
2018-09-21T00:55:58.876Z,1000.39
2018-09-21T00:56:58.841Z,1000.32
2018-09-21T00:58:52.167Z,1000.26
2018-09-21T00:59:52.128Z,1000.27
2018-09-21T01:01:45.453Z,1000.24
2018-09-21T01:02:45.420Z,1000.22
2018-09-21T01:04:38.736Z,1000.14
2018-09-21T01:05:38.693Z,1000.23
2018-09-21T01:07:32.001Z,1000.16
2018-09-21T01:08:31.973Z,1000.13
2018-09-21T01:10:25.307Z,1000.15
2018-09-21T01:11:25.254Z,1000.11
2018-09-21T01:13:18.566Z,1000.09
2018-09-21T01:14:18.541Z,1000.07
2018-09-21T01:16:11.858Z,1000.04
2018-09-21T01:17:11.811Z,1000.06
2018-09-21T01:19:05.134Z,1000.05
2018-09-21T01:20:05.097Z,1000.07
2018-09-21T01:21:58.422Z,1000.05
2018-09-21T01:22:58.387Z,1000.00
2018-09-21T01:24:51.698Z,999.98
2018-09-21T01:25:51.667Z,999.95
2018-09-21T01:27:44.963Z,999.88
2018-09-21T01:28:44.952Z,999.94
2018-09-21T01:30:38.273Z,999.92
2018-09-21T01:31:38.219Z,999.84
2018-09-21T01:33:31.546Z,999.86
2018-09-21T01:34:31.505Z,999.88
2018-09-21T01:36:24.827Z,999.75
2018-09-21T01:37:24.790Z,999.83
2018-09-21T01:39:18.095Z,999.82
2018-09-21T01:40:18.064Z,999.81
2018-09-21T01:42:11.391Z,999.82
2018-09-21T01:43:11.344Z,999.73
2018-09-21T01:45:04.667Z,999.73
2018-09-21T01:46:04.624Z,999.80
2018-09-21T01:47:57.938Z,999.69
2018-09-21T01:48:57.903Z,999.69
2018-09-21T01:50:51.233Z,999.68
2018-09-21T01:51:51.192Z,999.67
2018-09-21T01:53:44.524Z,999.63
2018-09-21T01:54:44.469Z,999.63
2018-09-21T01:56:37.794Z,999.52
2018-09-21T01:57:37.755Z,999.55
2018-09-21T01:59:31.069Z,999.54
2018-09-21T02:00:31.025Z,999.44
2018-09-21T02:02:24.345Z,999.43
2018-09-21T02:03:24.309Z,999.44
2018-09-21T02:05:17.633Z,999.46
2018-09-21T02:06:17.603Z,999.45
2018-09-21T02:08:10.929Z,999.35
2018-09-21T02:09:10.884Z,999.37
2018-09-21T02:11:04.200Z,999.33
2018-09-21T02:12:04.155Z,999.30
2018-09-21T02:13:57.473Z,999.30
2018-09-21T02:14:57.436Z,999.33
2018-09-21T02:16:50.756Z,999.14
2018-09-21T02:17:50.721Z,999.16
2018-09-21T02:19:44.039Z,999.13
2018-09-21T02:20:44.009Z,999.06
2018-09-21T02:22:37.345Z,999.02
2018-09-21T02:23:37.279Z,999.00
2018-09-21T02:25:30.606Z,999.00
2018-09-21T02:26:30.556Z,998.96
2018-09-21T02:28:23.889Z,998.93
2018-09-21T02:29:23.839Z,998.78
2018-09-21T02:31:17.175Z,998.85
2018-09-21T02:32:17.126Z,998.77
2018-09-21T02:34:10.465Z,998.82
2018-09-21T02:35:10.417Z,998.80
2018-09-21T02:37:03.767Z,998.78
2018-09-21T02:38:03.720Z,998.71
2018-09-21T02:39:57.045Z,998.62
2018-09-21T02:40:57.011Z,998.64
2018-09-21T02:42:50.335Z,998.62
2018-09-21T02:43:50.294Z,998.67
2018-09-21T02:45:43.600Z,998.58
2018-09-21T02:46:43.571Z,998.62
2018-09-21T02:48:36.958Z,998.60
2018-09-21T02:49:36.845Z,998.54
2018-09-21T02:51:30.165Z,998.52
2018-09-21T02:52:30.131Z,998.49
2018-09-21T02:54:23.453Z,998.42
2018-09-21T02:55:23.403Z,998.39
2018-09-21T02:57:16.740Z,998.37
2018-09-21T02:58:16.697Z,998.32
2018-09-21T03:00:10.035Z,998.30
2018-09-21T03:01:09.972Z,998.21
2018-09-21T03:03:03.301Z,998.24
2018-09-21T03:04:03.246Z,998.26
2018-09-21T03:05:56.563Z,998.11
2018-09-21T03:06:56.533Z,998.08
2018-09-21T03:08:49.859Z,998.17
2018-09-21T03:09:49.809Z,998.13
2018-09-21T03:11:43.116Z,998.14
2018-09-21T03:12:43.090Z,998.08
2018-09-21T03:14:36.419Z,998.05
2018-09-21T03:15:36.370Z,997.99
2018-09-21T03:17:29.716Z,997.92
2018-09-21T03:18:29.651Z,997.93
2018-09-21T03:20:22.964Z,997.80
2018-09-21T03:21:22.931Z,997.88
2018-09-21T03:23:16.257Z,997.80
2018-09-21T03:24:16.218Z,997.77
2018-09-21T03:26:09.527Z,997.70
2018-09-21T03:27:09.510Z,997.65
2018-09-21T03:29:02.830Z,997.62
2018-09-21T03:30:02.789Z,997.60
2018-09-21T03:31:56.089Z,997.69
2018-09-21T03:32:56.057Z,997.61
2018-09-21T03:34:49.432Z,997.64
2018-09-21T03:35:49.343Z,997.56
2018-09-21T03:37:42.683Z,997.61
2018-09-21T03:38:42.628Z,997.56
2018-09-21T03:40:35.950Z,997.50
2018-09-21T03:41:35.923Z,997.53
2018-09-21T03:43:29.279Z,997.45
2018-09-21T03:44:29.204Z,997.50
2018-09-21T03:46:22.514Z,997.48
2018-09-21T03:47:22.489Z,997.44
2018-09-21T03:49:15.837Z,997.34
2018-09-21T03:50:15.768Z,997.34
2018-09-21T03:52:09.101Z,997.30
2018-09-21T03:53:09.074Z,997.38
2018-09-21T03:55:02.404Z,997.34
2018-09-21T03:56:02.349Z,997.35
2018-09-21T03:57:55.674Z,997.37
2018-09-21T03:58:55.640Z,997.30
2018-09-21T04:00:48.966Z,997.32
2018-09-21T04:01:48.926Z,997.26
2018-09-21T04:03:42.254Z,997.22
2018-09-21T04:04:42.218Z,997.28
2018-09-21T04:06:35.542Z,997.19
2018-09-21T04:07:35.505Z,997.23
2018-09-21T04:09:28.855Z,997.19
2018-09-21T04:10:28.843Z,997.17
2018-09-21T04:12:22.110Z,997.18
2018-09-21T04:13:22.065Z,997.19
2018-09-21T04:15:15.409Z,997.16
2018-09-21T04:16:15.360Z,997.16
2018-09-21T04:18:08.697Z,997.15
2018-09-21T04:19:08.674Z,997.16
2018-09-21T04:21:01.985Z,997.19
2018-09-21T04:22:01.937Z,997.17
2018-09-21T04:23:55.256Z,997.17
2018-09-21T04:24:55.222Z,997.19
2018-09-21T04:26:48.549Z,997.24
2018-09-21T04:27:48.524Z,997.17
2018-09-21T04:29:41.834Z,997.25
2018-09-21T04:30:41.796Z,997.19
2018-09-21T04:32:35.135Z,997.20
2018-09-21T04:33:35.081Z,997.16
2018-09-21T04:35:28.405Z,997.14
2018-09-21T04:36:28.370Z,997.19
2018-09-21T04:38:21.706Z,997.12
2018-09-21T04:39:21.669Z,997.13
2018-09-21T04:41:14.991Z,997.13
2018-09-21T04:42:14.941Z,997.13
2018-09-21T04:44:08.285Z,997.13
2018-09-21T04:45:08.227Z,997.09
2018-09-21T04:47:01.570Z,997.11
2018-09-21T04:48:01.506Z,997.08
2018-09-21T04:49:54.864Z,997.06
2018-09-21T04:50:54.837Z,997.06
2018-09-21T04:52:48.155Z,997.03
2018-09-21T04:53:48.107Z,997.01
2018-09-21T04:55:41.435Z,996.89
2018-09-21T04:56:41.401Z,996.85
2018-09-21T04:58:34.747Z,996.84
2018-09-21T04:59:34.690Z,996.87
2018-09-21T05:01:28.026Z,996.88
2018-09-21T05:02:27.975Z,996.94
2018-09-21T05:04:21.289Z,996.90
2018-09-21T05:05:21.251Z,996.92
2018-09-21T05:07:14.575Z,996.91
2018-09-21T05:08:14.541Z,996.86
2018-09-21T05:10:07.851Z,996.82
2018-09-21T05:11:07.821Z,996.86
2018-09-21T05:13:01.141Z,996.79
2018-09-21T05:14:01.102Z,996.83
2018-09-21T05:15:54.436Z,996.77
2018-09-21T05:16:54.398Z,996.75
2018-09-21T05:18:47.762Z,996.72
2018-09-21T05:19:47.757Z,996.78
2018-09-21T05:21:42.035Z,996.70
2018-09-21T05:22:42.008Z,996.64
2018-09-21T05:24:35.329Z,996.61
2018-09-21T05:25:35.296Z,996.66
2018-09-21T05:27:28.634Z,996.69
2018-09-21T05:28:28.569Z,996.75
2018-09-21T05:30:21.882Z,996.75
2018-09-21T05:31:21.853Z,996.77
2018-09-21T05:33:15.188Z,996.81
2018-09-21T05:34:15.150Z,996.79
2018-09-21T05:36:08.460Z,996.81
2018-09-21T05:37:08.422Z,996.84
2018-09-21T05:39:01.777Z,996.87
2018-09-21T05:40:01.724Z,996.78
2018-09-21T05:41:55.033Z,996.78
2018-09-21T05:42:55.002Z,996.80
2018-09-21T05:44:48.341Z,996.83
2018-09-21T05:45:48.291Z,996.74
2018-09-21T05:47:41.615Z,996.84
2018-09-21T05:48:41.574Z,996.84
2018-09-21T05:50:34.903Z,996.83
2018-09-21T05:51:34.872Z,996.84
2018-09-21T05:53:28.194Z,996.82
2018-09-21T05:54:28.149Z,996.83
2018-09-21T05:56:21.469Z,996.83
2018-09-21T05:57:21.462Z,996.79
2018-09-21T05:59:14.779Z,996.80
2018-09-21T06:00:14.720Z,996.78
2018-09-21T06:02:08.103Z,996.80
2018-09-21T06:03:08.015Z,996.82
2018-09-21T06:05:01.329Z,996.79
2018-09-21T06:06:01.289Z,996.84
2018-09-21T06:07:54.639Z,996.84
2018-09-21T06:08:54.565Z,996.80
2018-09-21T06:10:47.891Z,996.78
2018-09-21T06:11:47.855Z,996.77
2018-09-21T06:13:41.272Z,996.80
2018-09-21T06:14:41.140Z,996.80
2018-09-21T06:16:34.471Z,996.87
2018-09-21T06:17:34.428Z,996.75
2018-09-21T06:19:27.843Z,996.77
2018-09-21T06:20:27.721Z,996.75
2018-09-21T06:22:21.040Z,996.79
2018-09-21T06:23:21.006Z,996.87
2018-09-21T06:25:14.328Z,996.83
2018-09-21T06:26:14.296Z,996.93
2018-09-21T06:28:07.596Z,996.87
2018-09-21T06:29:07.571Z,996.89
2018-09-21T06:31:00.903Z,996.85
2018-09-21T06:32:00.962Z,996.84
2018-09-21T06:33:54.199Z,996.78
2018-09-21T06:34:54.149Z,996.72
2018-09-21T06:36:47.460Z,996.59
2018-09-21T06:37:47.434Z,996.55
2018-09-21T06:39:40.760Z,996.48
2018-09-21T06:40:40.723Z,996.43
2018-09-21T06:42:34.076Z,996.54
2018-09-21T06:43:33.997Z,996.61
2018-09-21T06:45:27.334Z,996.83
2018-09-21T06:46:27.281Z,996.84
2018-09-21T06:48:20.606Z,996.69
2018-09-21T06:49:20.554Z,996.69
2018-09-21T06:51:13.890Z,996.82
2018-09-21T06:52:13.848Z,996.90
2018-09-21T06:54:07.162Z,996.99
2018-09-21T06:55:07.129Z,996.95
2018-09-21T06:57:00.466Z,996.95
2018-09-21T06:58:00.430Z,996.93
2018-09-21T06:59:53.762Z,996.87
2018-09-21T07:00:53.721Z,997.01
2018-09-21T07:02:47.040Z,997.01
2018-09-21T07:03:46.996Z,996.94
2018-09-21T07:05:40.353Z,997.11
2018-09-21T07:06:40.283Z,997.08
2018-09-21T07:08:33.625Z,997.14
2018-09-21T07:09:33.585Z,997.14
2018-09-21T07:11:26.877Z,997.20
2018-09-21T07:12:26.850Z,997.08
2018-09-21T07:14:20.180Z,996.98
2018-09-21T07:15:20.126Z,996.89
2018-09-21T07:17:13.458Z,996.88
2018-09-21T07:18:13.412Z,996.87
2018-09-21T07:20:06.717Z,996.92
2018-09-21T07:21:06.701Z,996.90
2018-09-21T07:23:00.051Z,996.81
2018-09-21T07:23:59.972Z,996.86
2018-09-21T07:25:53.311Z,996.80
2018-09-21T07:26:53.262Z,996.72
2018-09-21T07:28:46.573Z,996.72
2018-09-21T07:29:46.548Z,996.70
2018-09-21T07:31:39.879Z,996.67
2018-09-21T07:32:39.823Z,996.68
2018-09-21T07:34:33.147Z,996.69
2018-09-21T07:35:33.128Z,996.65
2018-09-21T07:37:26.504Z,996.66
2018-09-21T07:38:26.393Z,996.63
2018-09-21T07:40:19.708Z,996.48
2018-09-21T07:41:19.670Z,996.45
2018-09-21T07:43:13.048Z,996.50
2018-09-21T07:44:12.964Z,996.35
2018-09-21T07:46:06.283Z,996.48
2018-09-21T07:47:06.248Z,996.48
2018-09-21T07:48:59.606Z,996.40
2018-09-21T07:49:59.518Z,996.43
2018-09-21T07:51:52.850Z,996.43
2018-09-21T07:52:52.810Z,996.39
2018-09-21T07:54:46.117Z,996.51
2018-09-21T07:55:46.092Z,996.66
2018-09-21T07:57:39.423Z,996.69
2018-09-21T07:58:39.387Z,996.71
2018-09-21T08:00:32.698Z,996.89
2018-09-21T08:01:32.665Z,996.88
2018-09-21T08:03:25.998Z,996.84
2018-09-21T08:04:25.953Z,996.76
2018-09-21T08:06:19.288Z,996.63
2018-09-21T08:07:19.304Z,996.70
2018-09-21T08:09:12.570Z,996.66
2018-09-21T08:10:12.519Z,996.67
2018-09-21T08:12:05.860Z,996.67
2018-09-21T08:13:05.814Z,996.68
2018-09-21T08:14:59.129Z,996.71
2018-09-21T08:15:59.099Z,996.78
2018-09-21T08:17:52.429Z,996.77
2018-09-21T08:18:52.384Z,996.75
2018-09-21T08:20:45.700Z,996.77
2018-09-21T08:21:45.659Z,996.80
2018-09-21T08:23:38.995Z,996.77
2018-09-21T08:24:38.935Z,996.89
2018-09-21T08:26:32.291Z,996.81
2018-09-21T08:27:32.226Z,996.99
2018-09-21T08:29:25.556Z,996.91
2018-09-21T08:30:25.508Z,996.96
2018-09-21T08:32:18.840Z,997.05
2018-09-21T08:33:18.874Z,997.05
2018-09-21T08:35:12.101Z,997.06
2018-09-21T08:36:12.081Z,997.15
2018-09-21T08:38:05.407Z,997.29
2018-09-21T08:39:05.363Z,997.23
2018-09-21T08:40:58.678Z,997.34
2018-09-21T08:41:58.640Z,997.34
2018-09-21T08:43:51.971Z,997.27
2018-09-21T08:44:51.918Z,997.44
2018-09-21T08:46:45.252Z,997.58
2018-09-21T08:47:45.208Z,997.67
2018-09-21T08:49:38.545Z,997.84
2018-09-21T08:50:38.502Z,998.31
2018-09-21T08:52:31.808Z,998.48
2018-09-21T08:53:31.785Z,998.77
2018-09-21T08:55:25.113Z,998.57
2018-09-21T08:56:25.064Z,998.80
2018-09-21T08:58:18.402Z,998.82
2018-09-21T08:59:18.350Z,998.96
2018-09-21T09:01:11.664Z,999.11
2018-09-21T09:02:11.618Z,999.19
2018-09-21T09:04:04.943Z,999.22
2018-09-21T09:05:04.897Z,999.23
2018-09-21T09:06:58.201Z,999.34
2018-09-21T09:07:58.161Z,999.44
2018-09-21T09:09:51.478Z,999.41
2018-09-21T09:10:51.433Z,999.48
2018-09-21T09:12:44.743Z,999.62
2018-09-21T09:13:44.702Z,999.64
2018-09-21T09:15:38.034Z,999.63
2018-09-21T09:16:37.981Z,999.64
2018-09-21T09:18:31.288Z,999.60
2018-09-21T09:19:31.247Z,999.57
2018-09-21T09:21:24.568Z,999.50
2018-09-21T09:22:24.521Z,999.52
2018-09-21T09:24:17.828Z,999.51
2018-09-21T09:25:17.794Z,999.54
2018-09-21T09:27:11.108Z,999.50
2018-09-21T09:28:11.065Z,999.48
2018-09-21T09:30:04.448Z,999.49
2018-09-21T09:31:04.337Z,999.55
2018-09-21T09:32:57.649Z,999.61
2018-09-21T09:33:57.602Z,999.60
2018-09-21T09:35:50.907Z,999.65
2018-09-21T09:36:50.889Z,999.66
2018-09-21T09:38:44.170Z,999.74
2018-09-21T09:39:44.138Z,999.64
2018-09-21T09:41:37.451Z,999.71
2018-09-21T09:42:37.486Z,999.74
2018-09-21T09:44:30.732Z,999.77
2018-09-21T09:45:30.677Z,999.76
2018-09-21T09:47:23.975Z,999.88
2018-09-21T09:48:23.996Z,999.81
2018-09-21T09:50:17.265Z,999.85
2018-09-21T09:51:17.231Z,999.83
2018-09-21T09:53:10.545Z,999.85
2018-09-21T09:54:10.484Z,999.86
2018-09-21T09:56:03.810Z,999.90
2018-09-21T09:57:03.761Z,999.83
2018-09-21T09:58:57.069Z,999.90
2018-09-21T09:59:57.045Z,999.84
2018-09-21T10:01:50.365Z,999.78
2018-09-21T10:02:50.330Z,999.70
2018-09-21T10:04:43.611Z,999.76
2018-09-21T10:05:43.594Z,999.78
2018-09-21T10:07:36.897Z,999.79
2018-09-21T10:08:36.845Z,999.82
2018-09-21T10:10:30.211Z,999.86
2018-09-21T10:11:30.113Z,999.88
2018-09-21T10:13:23.443Z,999.80
2018-09-21T10:14:23.393Z,999.77
2018-09-21T10:16:16.756Z,999.74
2018-09-21T10:17:16.666Z,999.77
2018-09-21T10:19:09.961Z,999.72
2018-09-21T10:20:09.934Z,999.76
2018-09-21T10:22:02.746Z,999.60
2018-09-21T10:23:02.704Z,999.66
2018-09-21T10:24:56.002Z,999.73
2018-09-21T10:25:55.958Z,999.76
2018-09-21T10:27:49.360Z,999.75
2018-09-21T10:28:49.390Z,999.75
2018-09-21T10:30:42.521Z,999.76
2018-09-21T10:31:42.498Z,999.85
2018-09-21T10:33:36.020Z,999.87
2018-09-21T10:34:35.859Z,999.85
2018-09-21T10:36:29.158Z,999.78
2018-09-21T10:37:29.046Z,999.77
2018-09-21T10:39:22.545Z,999.77
2018-09-21T10:40:22.356Z,999.78
2018-09-21T10:42:15.636Z,999.78
2018-09-21T10:43:15.665Z,999.74
2018-09-21T10:45:08.887Z,999.75
2018-09-21T10:46:08.857Z,999.75
2018-09-21T10:48:02.175Z,999.73
2018-09-21T10:49:02.117Z,999.71
2018-09-21T10:50:55.446Z,999.73
2018-09-21T10:51:55.395Z,999.75
2018-09-21T10:53:48.231Z,999.81
2018-09-21T10:54:48.161Z,999.85
2018-09-21T10:56:41.467Z,999.90
2018-09-21T10:57:41.431Z,999.92
2018-09-21T10:59:34.751Z,999.84
2018-09-21T11:00:34.744Z,999.91
2018-09-21T11:02:28.002Z,999.96
2018-09-21T11:03:27.993Z,999.99
2018-09-21T11:05:21.292Z,1000.03
2018-09-21T11:06:21.248Z,1000.09
2018-09-21T11:08:14.591Z,1000.01
2018-09-21T11:09:14.521Z,999.96
2018-09-21T11:11:07.828Z,1000.03
2018-09-21T11:12:07.800Z,1000.06
2018-09-21T11:14:01.116Z,999.94
2018-09-21T11:15:01.078Z,999.94
2018-09-21T11:16:54.370Z,999.94
2018-09-21T11:17:54.336Z,999.95
2018-09-21T11:19:47.653Z,999.91
2018-09-21T11:20:47.610Z,999.81
2018-09-21T11:22:40.924Z,999.88
2018-09-21T11:23:40.882Z,999.93
2018-09-21T11:25:34.193Z,999.93
2018-09-21T11:26:34.147Z,999.91
2018-09-21T11:28:27.474Z,999.88
2018-09-21T11:29:27.428Z,999.89
2018-09-21T11:31:20.769Z,1000.17
2018-09-21T11:32:20.704Z,1000.20
2018-09-21T11:34:14.019Z,1000.16
2018-09-21T11:35:13.980Z,1000.22
2018-09-21T11:37:07.304Z,1000.18
2018-09-21T11:38:07.259Z,1000.38
2018-09-21T11:40:00.621Z,1000.33
2018-09-21T11:41:00.595Z,1000.30
2018-09-21T11:42:53.834Z,1000.25
2018-09-21T11:43:53.816Z,1000.32
2018-09-21T11:45:47.161Z,1000.22
2018-09-21T11:46:47.161Z,1000.34
2018-09-21T11:48:40.418Z,1000.38
2018-09-21T11:49:40.382Z,1000.33
2018-09-21T11:51:33.708Z,1000.23
2018-09-21T11:52:33.668Z,1000.28
2018-09-21T11:54:26.973Z,1000.28
2018-09-21T11:55:26.944Z,1000.29
2018-09-21T11:57:20.262Z,1000.32
2018-09-21T11:58:20.221Z,1000.30
2018-09-21T12:00:13.538Z,1000.21
2018-09-21T12:01:13.499Z,1000.31
2018-09-21T12:03:06.824Z,1000.57
2018-09-21T12:04:06.774Z,1000.67
2018-09-21T12:06:00.107Z,1000.73
2018-09-21T12:07:00.056Z,1000.72
2018-09-21T12:08:53.385Z,1000.76
2018-09-21T12:09:53.325Z,1000.77
2018-09-21T12:11:46.643Z,1000.85
2018-09-21T12:12:46.604Z,1000.79
2018-09-21T12:14:39.909Z,1000.88
2018-09-21T12:15:39.885Z,1000.90
2018-09-21T12:17:33.205Z,1000.96
2018-09-21T12:18:33.145Z,1001.00
2018-09-21T12:20:26.464Z,1001.16
2018-09-21T12:21:26.424Z,1001.07
2018-09-21T12:23:19.764Z,1001.06
2018-09-21T12:24:19.713Z,1001.09
2018-09-21T12:26:13.038Z,1001.19
2018-09-21T12:27:12.996Z,1001.18
2018-09-21T12:29:06.321Z,1001.22
2018-09-21T12:30:06.271Z,1001.25
2018-09-21T12:31:59.598Z,1001.17
2018-09-21T12:32:59.546Z,1001.18
2018-09-21T12:34:52.850Z,1001.37
2018-09-21T12:35:52.877Z,1001.34
2018-09-21T12:37:46.176Z,1001.34
2018-09-21T12:38:46.149Z,1001.33
2018-09-21T12:40:39.415Z,1001.28
2018-09-21T12:41:39.375Z,1001.41
2018-09-21T12:43:32.708Z,1001.48
2018-09-21T12:44:32.769Z,1001.49
2018-09-21T12:46:25.959Z,1001.56
2018-09-21T12:47:25.933Z,1001.57
2018-09-21T12:49:19.258Z,1001.61
2018-09-21T12:50:19.270Z,1001.63
2018-09-21T12:52:12.515Z,1001.64
2018-09-21T12:53:12.468Z,1001.74
2018-09-21T12:55:05.803Z,1001.74
2018-09-21T12:56:05.749Z,1001.90
2018-09-21T12:57:59.144Z,1001.81
2018-09-21T12:58:59.028Z,1001.83
2018-09-21T13:00:52.359Z,1001.86
2018-09-21T13:01:52.323Z,1001.90
2018-09-21T13:03:45.632Z,1001.90
2018-09-21T13:04:45.593Z,1001.92
2018-09-21T13:06:38.926Z,1001.89
2018-09-21T13:07:38.872Z,1001.90
2018-09-21T13:09:32.197Z,1001.96
2018-09-21T13:10:32.143Z,1001.93
2018-09-21T13:12:25.459Z,1001.91
2018-09-21T13:13:25.423Z,1001.94
2018-09-21T13:15:18.739Z,1001.98
2018-09-21T13:16:18.694Z,1002.03
2018-09-21T13:18:11.996Z,1001.94
2018-09-21T13:19:11.971Z,1001.99
2018-09-21T13:21:05.283Z,1002.00
2018-09-21T13:22:05.244Z,1002.05
2018-09-21T13:23:58.577Z,1002.05
2018-09-21T13:24:58.551Z,1002.06
2018-09-21T13:26:51.865Z,1002.18
2018-09-21T13:27:51.801Z,1002.15
2018-09-21T13:29:45.118Z,1002.18
2018-09-21T13:30:45.070Z,1002.22
2018-09-21T13:32:38.374Z,1002.22
2018-09-21T13:33:38.359Z,1002.22
2018-09-21T13:35:31.673Z,1002.16
2018-09-21T13:36:31.619Z,1002.25
2018-09-21T13:38:24.917Z,1002.24
2018-09-21T13:39:24.887Z,1002.25
2018-09-21T13:41:18.219Z,1002.25
2018-09-21T13:42:18.184Z,1002.39
2018-09-21T13:44:11.483Z,1002.31
2018-09-21T13:45:11.443Z,1002.39
2018-09-21T13:47:04.808Z,1002.47
2018-09-21T13:48:04.724Z,1002.39
2018-09-21T13:49:58.033Z,1002.41
2018-09-21T13:50:57.992Z,1002.42
2018-09-21T13:52:51.327Z,1002.42
2018-09-21T13:53:51.264Z,1002.42
2018-09-21T13:55:44.614Z,1002.44
2018-09-21T13:56:44.558Z,1002.47
2018-09-21T13:58:37.888Z,1002.44
2018-09-21T13:59:37.840Z,1002.44
2018-09-21T14:01:31.163Z,1002.44
2018-09-21T14:02:31.119Z,1002.45
2018-09-21T14:04:24.434Z,1002.54
2018-09-21T14:05:24.407Z,1002.59
2018-09-21T14:07:17.709Z,1002.61
2018-09-21T14:08:17.659Z,1002.62
2018-09-21T14:10:10.966Z,1002.65
2018-09-21T14:11:10.932Z,1002.68
2018-09-21T14:13:04.244Z,1002.73
2018-09-21T14:14:04.199Z,1002.81
2018-09-21T14:15:57.521Z,1002.88
2018-09-21T14:16:57.480Z,1002.84
2018-09-21T14:18:50.791Z,1002.76
2018-09-21T14:19:50.749Z,1002.87
2018-09-21T14:21:44.070Z,1002.78
2018-09-21T14:22:44.045Z,1002.83
2018-09-21T14:24:37.350Z,1002.86
2018-09-21T14:25:37.302Z,1002.89
2018-09-21T14:27:30.617Z,1002.98
2018-09-21T14:28:30.577Z,1003.08
2018-09-21T14:30:23.875Z,1003.11
2018-09-21T14:31:23.854Z,1003.08
2018-09-21T14:33:18.783Z,1003.12
2018-09-21T14:34:17.127Z,1003.11
2018-09-21T14:36:10.452Z,1003.21
2018-09-21T14:37:10.410Z,1003.12
2018-09-21T14:39:03.730Z,1003.09
2018-09-21T14:40:03.693Z,1003.15
2018-09-21T14:41:56.985Z,1003.18
2018-09-21T14:42:56.966Z,1003.26
2018-09-21T14:44:50.287Z,1003.32
2018-09-21T14:45:50.246Z,1003.29
2018-09-21T14:47:43.592Z,1003.20
2018-09-21T14:48:43.520Z,1003.32
2018-09-21T14:50:36.910Z,1003.35
2018-09-21T14:51:36.795Z,1003.36
2018-09-21T14:53:30.132Z,1003.39
2018-09-21T14:54:30.079Z,1003.41
2018-09-21T14:56:23.391Z,1003.51
2018-09-21T14:57:23.357Z,1003.44
2018-09-21T14:59:16.668Z,1003.55
2018-09-21T15:00:16.633Z,1003.49
2018-09-21T15:02:09.946Z,1003.50
2018-09-21T15:03:09.907Z,1003.54
2018-09-21T15:05:03.237Z,1003.56
2018-09-21T15:06:03.198Z,1003.59
2018-09-21T15:07:56.511Z,1003.54
2018-09-21T15:08:56.481Z,1003.63
2018-09-21T15:10:49.793Z,1003.52
2018-09-21T15:11:49.750Z,1003.57
2018-09-21T15:13:43.064Z,1003.56
2018-09-21T15:14:43.033Z,1003.53
2018-09-21T15:16:36.395Z,1003.62
2018-09-21T15:17:36.312Z,1003.70
2018-09-21T15:19:29.632Z,1003.59
2018-09-21T15:20:29.607Z,1003.61
2018-09-21T15:22:22.984Z,1003.63
2018-09-21T15:23:22.873Z,1003.63
2018-09-21T15:25:16.196Z,1003.66
2018-09-21T15:26:16.147Z,1003.67
2018-09-21T15:28:09.461Z,1003.66
2018-09-21T15:29:09.429Z,1003.54
2018-09-21T15:31:02.778Z,1003.64
2018-09-21T15:32:02.714Z,1003.67
2018-09-21T15:33:56.028Z,1003.79
2018-09-21T15:34:55.987Z,1003.81
2018-09-21T15:36:49.315Z,1003.73
2018-09-21T15:37:49.283Z,1003.81
2018-09-21T15:39:42.677Z,1003.79
2018-09-21T15:40:42.563Z,1003.73
2018-09-21T15:42:35.869Z,1003.71
2018-09-21T15:43:35.891Z,1003.78
2018-09-21T15:45:29.148Z,1003.78
2018-09-21T15:46:29.110Z,1003.78
2018-09-21T15:48:22.439Z,1003.72
2018-09-21T15:49:22.410Z,1003.83
2018-09-21T15:51:15.766Z,1003.83
2018-09-21T15:52:15.732Z,1003.87
2018-09-21T15:54:09.039Z,1003.89
2018-09-21T15:55:09.010Z,1003.84
2018-09-21T15:57:02.344Z,1003.88
2018-09-21T15:58:02.296Z,1003.94
2018-09-21T15:59:55.601Z,1003.80
2018-09-21T16:00:55.594Z,1003.92
2018-09-21T16:02:48.989Z,1003.96
2018-09-21T16:03:48.842Z,1003.98
2018-09-21T16:05:42.173Z,1003.99
2018-09-21T16:06:42.140Z,1003.90
2018-09-21T16:08:35.455Z,1004.03
2018-09-21T16:09:35.406Z,1003.96
2018-09-21T16:11:28.731Z,1003.95
2018-09-21T16:12:28.690Z,1004.01
2018-09-21T16:14:22.010Z,1003.92
2018-09-21T16:15:21.950Z,1003.96
2018-09-21T16:17:15.283Z,1004.05
2018-09-21T16:18:15.236Z,1004.01
2018-09-21T16:20:09.399Z,1004.02
2018-09-21T16:21:09.355Z,1003.95
2018-09-21T16:23:02.689Z,1003.98
2018-09-21T16:24:02.649Z,1003.88
2018-09-21T16:25:55.975Z,1003.97
2018-09-21T16:26:55.943Z,1003.96
2018-09-21T16:28:49.289Z,1004.04
2018-09-21T16:29:49.246Z,1004.01
2018-09-21T16:31:42.590Z,1003.95
2018-09-21T16:32:42.540Z,1003.97
2018-09-21T16:34:35.854Z,1003.99
2018-09-21T16:35:35.805Z,1003.99
2018-09-21T16:37:29.136Z,1003.99
2018-09-21T16:38:29.086Z,1004.01
2018-09-21T16:40:22.398Z,1004.03
2018-09-21T16:41:22.368Z,1003.99
2018-09-21T16:43:16.690Z,1004.03
2018-09-21T16:44:16.641Z,1003.99
2018-09-21T16:46:10.025Z,1003.96
2018-09-21T16:47:09.911Z,1003.95
2018-09-21T16:49:03.232Z,1004.03
2018-09-21T16:50:03.189Z,1003.99
2018-09-21T16:51:56.504Z,1004.01
2018-09-21T16:52:56.458Z,1004.03
2018-09-21T16:54:49.796Z,1004.14
2018-09-21T16:55:49.750Z,1004.08
2018-09-21T16:57:43.124Z,1004.22
2018-09-21T16:58:43.112Z,1004.16
2018-09-21T17:00:36.326Z,1004.22
2018-09-21T17:01:36.300Z,1004.21
2018-09-21T17:03:29.617Z,1004.20
2018-09-21T17:04:29.659Z,1004.23
2018-09-21T17:06:22.891Z,1004.21
2018-09-21T17:07:22.847Z,1004.20
2018-09-21T17:09:16.161Z,1004.23
2018-09-21T17:10:16.121Z,1004.22
2018-09-21T17:12:09.427Z,1004.27
2018-09-21T17:13:09.396Z,1004.26
2018-09-21T17:15:02.716Z,1004.31
2018-09-21T17:16:02.670Z,1004.36
2018-09-21T17:17:55.983Z,1004.33
2018-09-21T17:18:55.947Z,1004.37
2018-09-21T17:20:49.274Z,1004.45
2018-09-21T17:21:49.221Z,1004.49
2018-09-21T17:23:42.553Z,1004.50
2018-09-21T17:24:42.504Z,1004.54
2018-09-21T17:26:35.839Z,1004.60
2018-09-21T17:27:35.783Z,1004.57
2018-09-21T17:29:29.102Z,1004.54
2018-09-21T17:30:29.056Z,1004.57
2018-09-21T17:32:22.373Z,1004.57
2018-09-21T17:33:22.334Z,1004.56
2018-09-21T17:35:15.650Z,1004.62
2018-09-21T17:36:15.603Z,1004.61
2018-09-21T17:38:08.907Z,1004.67
2018-09-21T17:39:08.867Z,1004.74
2018-09-21T17:41:02.199Z,1004.70
2018-09-21T17:42:02.158Z,1004.78
2018-09-21T17:43:55.467Z,1004.79
2018-09-21T17:44:55.427Z,1004.74
2018-09-21T17:46:48.744Z,1004.74